Terminal Aerodrome Forecast
Issued by NWS Grand Forks, ND

Home | Current Version | Previous Version | Text Only | Print | Product List | Glossary On
Versions: 1 2 3 4 5 6 7 8 9 10 11 12 13 14 15 16 17 18 19 20
398
FTUS43 KFGF 302045 AAA
TAFGFK
TAF AMD
KGFK 302045Z 3021/3118 VRB05KT P6SM BKN250
      TEMPO 3021/3023 5SM -TSRA BKN060CB
     FM310000 12007KT P6SM BKN090
     FM310300 10007KT P6SM -TSRA BKN050CB
     FM311200 12007KT P6SM BKN035
     FM311500 19013G18KT P6SM BKN040=

USA.gov is the U.S. government's official web portal to all federal, state and local government web resources and services.